Terminal Aerodrome Forecast
Issued by NWS Sterling, VA

Home | Current Version | Previous Version | Text Only | Print | Product List | Glossary On
Versions: 1 2 3 4 5 6 7 8 9 10 11 12 13 14 15 16 17 18 19 20 21 22 23 24
000
FTUS41 KLWX 210500
TAFDCA
TAF
KDCA 210537Z 2106/2206 VRB03KT P6SM SCT015 BKN150
     FM211000 00000KT 6SM BR SCT008 SCT070
     FM211200 00000KT P6SM FEW015 SCT060
     FM211500 00000KT P6SM SCT030 BKN090
     FM212200 25004KT P6SM VCTS SCT030 BKN060CB=

USA.gov is the U.S. government's official web portal to all federal, state and local government web resources and services.